Terminal Aerodrome Forecast
Issued by NWS

Home | Current Version | Previous Version | Text Only | Print | Product List | Glossary On
Versions: 1 2 3 4 5 6 7 8 9 10 11 12 13 14 15
000
FTAK31 PAJN 012300
TAFAGY
TAF
PAGY 012330Z 0200/0224 22005KT P6SM -SHRA BKN050 OVC070
     FM020600 VRB04KT P6SM SCT040 BKN060
     FM021000 VRB03KT P6SM SCT060 SCT100
     FM021400 21005KT P6SM FEW060 SCT100
     FM022100 21012KT P6SM SCT050 BKN070
      AMD LTD TO CLD VIS AND WIND=

USA.gov is the U.S. government's official web portal to all federal, state and local government web resources and services.